createdAt,value
2023-02-12T00:00:09.393Z,21.87
2023-02-12T00:02:47.297Z,22.27
2023-02-12T00:05:16.536Z,21.93
2023-02-12T00:07:45.409Z,24.10
2023-02-12T00:10:15.729Z,23.40
2023-02-12T00:12:45.525Z,23.13
2023-02-12T00:15:21.563Z,23.43
2023-02-12T00:17:48.641Z,22.60
2023-02-12T00:20:15.802Z,22.57
2023-02-12T00:22:46.883Z,22.47
2023-02-12T00:25:19.337Z,23.27
2023-02-12T00:27:46.936Z,23.50
2023-02-12T00:30:16.226Z,24.13
2023-02-12T00:32:46.554Z,23.67
2023-02-12T00:35:14.377Z,23.07
2023-02-12T00:37:42.027Z,23.00
2023-02-12T00:40:11.323Z,22.47
2023-02-12T00:42:43.516Z,22.50
2023-02-12T00:45:10.942Z,21.90
2023-02-12T00:47:40.555Z,23.67
2023-02-12T00:50:09.628Z,23.03
2023-02-12T00:52:36.931Z,23.47
2023-02-12T00:55:06.036Z,24.60
2023-02-12T00:57:36.790Z,23.90
2023-02-12T01:00:06.103Z,23.30
2023-02-12T01:02:33.938Z,22.33
2023-02-12T01:05:04.990Z,22.13
2023-02-12T01:07:34.328Z,24.40
2023-02-12T01:10:05.056Z,22.97
2023-02-12T01:12:35.756Z,22.53
2023-02-12T01:15:04.131Z,22.50
2023-02-12T01:17:31.945Z,22.37
2023-02-12T01:20:01.952Z,22.13
2023-02-12T01:22:32.493Z,23.50
2023-02-12T01:25:03.753Z,22.70
2023-02-12T01:27:33.839Z,23.17
2023-02-12T01:30:03.257Z,23.53
2023-02-12T01:32:31.054Z,22.50
2023-02-12T01:34:59.165Z,22.33
2023-02-12T01:37:28.962Z,22.87
2023-02-12T01:39:59.583Z,24.27
2023-02-12T01:42:31.015Z,24.83
2023-02-12T01:45:17.174Z,23.33
2023-02-12T01:47:47.324Z,24.80
2023-02-12T01:50:21.173Z,25.57
2023-02-12T01:52:56.654Z,26.30
2023-02-12T01:55:25.294Z,26.20
2023-02-12T01:57:56.937Z,23.70
2023-02-12T02:00:30.626Z,25.43
2023-02-12T02:03:03.632Z,25.67
2023-02-12T02:05:57.373Z,25.03
2023-02-12T02:08:31.247Z,26.17
2023-02-12T02:10:59.366Z,25.47
2023-02-12T02:13:47.270Z,26.43
2023-02-12T02:16:30.590Z,26.03
2023-02-12T02:19:35.279Z,25.73
2023-02-12T02:22:28.061Z,26.03
2023-02-12T02:25:29.144Z,24.80
2023-02-12T02:28:46.292Z,25.37
2023-02-12T02:31:33.302Z,25.73
2023-02-12T02:34:38.525Z,24.03
2023-02-12T02:37:24.020Z,24.93
2023-02-12T02:40:18.188Z,24.20
2023-02-12T02:43:04.447Z,24.27
2023-02-12T02:45:40.093Z,24.50
2023-02-12T02:48:18.751Z,25.80
2023-02-12T02:50:58.312Z,24.30
2023-02-12T02:53:34.131Z,23.37
2023-02-12T02:56:07.665Z,24.20
2023-02-12T02:58:51.447Z,26.10
2023-02-12T03:01:31.960Z,27.67
2023-02-12T03:04:19.438Z,27.07
2023-02-12T03:07:05.430Z,30.30
2023-02-12T03:09:45.474Z,27.17
2023-02-12T03:12:28.908Z,26.10
2023-02-12T03:15:08.967Z,28.23
2023-02-12T03:17:49.454Z,27.10
2023-02-12T03:20:43.279Z,28.37
2023-02-12T03:23:25.742Z,28.50
2023-02-12T03:26:20.738Z,31.30
2023-02-12T03:28:50.930Z,29.60
2023-02-12T03:32:08.451Z,30.57
2023-02-12T03:34:45.717Z,28.43
2023-02-12T03:37:21.775Z,31.60
2023-02-12T03:40:29.078Z,29.33
2023-02-12T03:43:36.275Z,29.30
2023-02-12T03:46:35.364Z,30.57
2023-02-12T03:49:37.167Z,31.37
2023-02-12T03:52:06.762Z,29.53
2023-02-12T03:54:37.090Z,31.57
2023-02-12T03:57:25.895Z,29.50
2023-02-12T03:59:54.470Z,30.13
2023-02-12T04:02:24.565Z,31.40
2023-02-12T04:04:55.299Z,29.13
2023-02-12T04:07:26.951Z,30.73
2023-02-12T04:09:58.552Z,29.17
2023-02-12T04:12:48.202Z,30.00
2023-02-12T04:15:57.123Z,33.10
2023-02-12T04:18:45.015Z,31.50
2023-02-12T04:21:36.018Z,28.50
2023-02-12T04:24:17.081Z,30.47
2023-02-12T04:27:06.285Z,29.43
2023-02-12T04:29:39.370Z,29.50
2023-02-12T04:32:26.327Z,27.23
2023-02-12T04:35:37.415Z,27.30
2023-02-12T04:38:41.753Z,27.83
2023-02-12T04:41:10.739Z,27.60
2023-02-12T04:43:37.834Z,27.27
2023-02-12T04:46:08.046Z,27.73
2023-02-12T04:48:39.978Z,27.93
2023-02-12T04:51:10.377Z,26.40
2023-02-12T04:53:41.104Z,29.33
2023-02-12T04:56:14.404Z,27.30
2023-02-12T04:58:45.582Z,30.50
2023-02-12T05:01:16.898Z,29.80
2023-02-12T05:03:45.317Z,27.30
2023-02-12T05:06:17.444Z,27.60
2023-02-12T05:08:48.948Z,27.17
2023-02-12T05:11:15.944Z,26.00
2023-02-12T05:13:45.184Z,26.87
2023-02-12T05:16:14.895Z,28.60
2023-02-12T05:18:46.451Z,33.27
2023-02-12T05:21:14.262Z,27.23
2023-02-12T05:23:42.592Z,28.00
2023-02-12T05:26:27.920Z,30.13
2023-02-12T05:28:59.298Z,29.40
2023-02-12T05:31:29.832Z,28.43
2023-02-12T05:34:00.455Z,30.87
2023-02-12T05:36:31.335Z,29.80
2023-02-12T05:39:00.701Z,29.17
2023-02-12T05:41:30.621Z,29.40
2023-02-12T05:44:01.877Z,27.80
2023-02-12T05:46:31.639Z,29.00
2023-02-12T05:49:00.420Z,28.80
2023-02-12T05:51:30.886Z,25.90
2023-02-12T05:54:03.540Z,29.73
2023-02-12T05:56:47.578Z,30.10
2023-02-12T05:59:25.828Z,31.00
2023-02-12T06:01:59.069Z,28.10
2023-02-12T06:04:31.033Z,31.10
2023-02-12T06:07:00.490Z,30.10
2023-02-12T06:09:32.979Z,30.27
2023-02-12T06:12:02.117Z,30.57
2023-02-12T06:14:32.155Z,34.10
2023-02-12T06:17:00.573Z,32.23
2023-02-12T06:19:31.295Z,31.57
2023-02-12T06:22:01.726Z,30.50
2023-02-12T06:24:32.235Z,32.37
2023-02-12T06:27:02.234Z,32.90
2023-02-12T06:29:30.647Z,32.90
2023-02-12T06:32:02.147Z,31.77
2023-02-12T06:34:31.133Z,32.57
2023-02-12T06:37:00.399Z,36.80
2023-02-12T06:39:28.646Z,32.30
2023-02-12T06:41:55.905Z,31.93
2023-02-12T06:44:25.611Z,34.30
2023-02-12T06:46:55.566Z,33.63
2023-02-12T06:49:25.069Z,31.77
2023-02-12T06:51:54.410Z,34.07
2023-02-12T06:54:24.686Z,31.30
2023-02-12T06:56:51.862Z,31.93
2023-02-12T06:59:21.172Z,33.07
2023-02-12T07:01:49.964Z,33.17
2023-02-12T07:04:20.930Z,30.33
2023-02-12T07:06:50.089Z,31.67
2023-02-12T07:09:20.884Z,31.43
2023-02-12T07:11:50.561Z,32.00
2023-02-12T07:14:18.852Z,32.07
2023-02-12T07:16:46.937Z,30.30
2023-02-12T07:19:18.635Z,34.03
2023-02-12T07:21:49.201Z,34.63
2023-02-12T07:24:18.325Z,31.13
2023-02-12T07:26:50.381Z,29.37
2023-02-12T07:29:18.701Z,29.13
2023-02-12T07:31:49.513Z,31.23
2023-02-12T07:34:17.941Z,31.27
2023-02-12T07:36:46.435Z,31.33
2023-02-12T07:39:17.554Z,30.30
2023-02-12T07:41:48.706Z,32.03
2023-02-12T07:44:21.016Z,33.40
2023-02-12T07:46:52.348Z,31.37
2023-02-12T07:49:27.003Z,30.67
2023-02-12T07:51:59.409Z,30.40
2023-02-12T07:54:28.216Z,32.20
2023-02-12T07:56:59.110Z,28.87
2023-02-12T07:59:29.824Z,28.70
2023-02-12T08:02:02.350Z,29.23
2023-02-12T08:04:34.087Z,30.30
2023-02-12T08:07:05.245Z,30.53
2023-02-12T08:09:33.248Z,29.70
2023-02-12T08:12:02.652Z,33.67
2023-02-12T08:14:31.099Z,32.73
2023-02-12T08:17:01.476Z,29.40
2023-02-12T08:19:32.024Z,32.30
2023-02-12T08:22:01.191Z,32.43
2023-02-12T08:24:28.793Z,31.87
2023-02-12T08:26:59.226Z,31.77
2023-02-12T08:29:32.528Z,28.70
2023-02-12T08:32:08.505Z,28.13
2023-02-12T08:34:38.114Z,28.60
2023-02-12T08:37:07.449Z,30.63
2023-02-12T08:39:36.144Z,33.10
2023-02-12T08:42:04.417Z,39.43
2023-02-12T08:44:31.551Z,36.57
2023-02-12T08:47:00.216Z,40.20
2023-02-12T08:49:32.950Z,32.03
2023-02-12T08:52:07.954Z,30.80
2023-02-12T08:54:36.091Z,30.63
2023-02-12T08:57:04.893Z,29.30
2023-02-12T08:59:35.957Z,28.23
2023-02-12T09:02:08.658Z,27.87
2023-02-12T09:04:36.348Z,28.20
2023-02-12T09:07:04.544Z,32.17
2023-02-12T09:09:38.616Z,28.87
2023-02-12T09:12:10.627Z,28.23
2023-02-12T09:14:38.427Z,31.83
2023-02-12T09:17:06.082Z,35.93
2023-02-12T09:19:39.130Z,31.70
2023-02-12T09:22:09.387Z,29.43
2023-02-12T09:24:38.609Z,32.87
2023-02-12T09:27:09.304Z,29.00
2023-02-12T09:29:39.332Z,27.00
2023-02-12T09:32:09.905Z,27.03
2023-02-12T09:34:37.923Z,25.13
2023-02-12T09:37:06.126Z,24.60
2023-02-12T09:39:35.592Z,25.03
2023-02-12T09:42:32.398Z,24.30
2023-02-12T09:45:25.178Z,25.63
2023-02-12T09:48:03.361Z,26.60
2023-02-12T09:50:48.110Z,25.47
2023-02-12T09:53:25.683Z,26.87
2023-02-12T09:55:57.845Z,23.47
2023-02-12T09:58:51.705Z,25.13
2023-02-12T10:01:24.335Z,23.47
2023-02-12T10:03:54.035Z,24.03
2023-02-12T10:06:51.815Z,21.70
2023-02-12T10:09:53.154Z,23.23
2023-02-12T10:12:39.116Z,21.10
2023-02-12T10:15:46.224Z,20.70
2023-02-12T10:18:52.517Z,20.20
2023-02-12T10:22:09.658Z,19.20
2023-02-12T10:24:46.096Z,18.00
2023-02-12T10:27:24.929Z,20.37
2023-02-12T10:29:55.077Z,20.07
2023-02-12T10:32:36.200Z,19.63
2023-02-12T10:35:18.344Z,18.67
2023-02-12T10:38:09.436Z,20.93
2023-02-12T10:40:48.370Z,17.63
2023-02-12T10:43:19.856Z,17.90
2023-02-12T10:45:51.648Z,16.30
2023-02-12T10:48:39.090Z,16.53
2023-02-12T10:51:31.821Z,16.53
2023-02-12T10:54:43.348Z,15.97
2023-02-12T10:57:27.969Z,16.07
2023-02-12T11:03:34.944Z,15.57
2023-02-12T11:06:27.969Z,15.43
2023-02-12T11:09:00.045Z,16.43
2023-02-12T11:11:41.194Z,15.17
2023-02-12T11:14:21.679Z,16.20
2023-02-12T11:17:20.901Z,15.73
2023-02-12T11:20:06.639Z,15.50
2023-02-12T11:22:35.840Z,14.37
2023-02-12T11:25:20.863Z,14.67
2023-02-12T11:28:18.675Z,15.77
2023-02-12T11:31:29.784Z,15.37
2023-02-12T11:34:16.412Z,14.77
2023-02-12T11:37:00.044Z,14.93
2023-02-12T11:39:47.708Z,15.87
2023-02-12T11:42:18.984Z,15.60
2023-02-12T11:45:00.765Z,15.80
2023-02-12T11:47:50.283Z,15.43
2023-02-12T11:50:33.789Z,16.13
2023-02-12T11:53:10.074Z,14.77
2023-02-12T11:56:04.427Z,16.63
2023-02-12T11:58:35.780Z,18.93
2023-02-12T12:01:31.956Z,20.73
2023-02-12T12:04:21.061Z,18.53
2023-02-12T12:07:03.998Z,21.03
2023-02-12T12:09:45.084Z,22.13
2023-02-12T12:12:49.041Z,24.50
2023-02-12T12:16:07.788Z,23.73
2023-02-12T12:19:11.884Z,22.63
2023-02-12T12:22:16.586Z,26.47
2023-02-12T12:25:24.832Z,21.90
2023-02-12T12:31:16.465Z,22.00
2023-02-12T12:33:51.265Z,20.10
2023-02-12T12:36:49.485Z,19.77
2023-02-12T12:40:03.754Z,21.47
2023-02-12T12:42:51.140Z,17.50
2023-02-12T12:45:56.413Z,19.67
2023-02-12T12:48:48.697Z,19.57
2023-02-12T12:51:58.056Z,19.60
2023-02-12T12:55:02.639Z,17.67
2023-02-12T12:58:20.960Z,19.13
2023-02-12T13:01:30.911Z,18.77
2023-02-12T13:04:40.028Z,16.70
2023-02-12T13:07:46.950Z,16.77
2023-02-12T13:10:42.838Z,18.83
2023-02-12T13:13:20.267Z,19.53
2023-02-12T13:16:07.653Z,19.97
2023-02-12T13:19:19.365Z,18.03
2023-02-12T13:22:12.274Z,18.10
2023-02-12T13:25:25.576Z,17.50
2023-02-12T13:27:56.566Z,18.27
2023-02-12T13:30:48.095Z,19.80
2023-02-12T13:33:42.724Z,21.17
2023-02-12T13:36:22.827Z,21.17
2023-02-12T13:39:16.411Z,21.73
2023-02-12T13:42:08.324Z,18.43
2023-02-12T13:45:03.165Z,20.83
2023-02-12T13:47:52.401Z,19.03
2023-02-12T13:50:50.929Z,21.40
2023-02-12T13:53:52.117Z,19.27
2023-02-12T13:56:41.098Z,18.83
2023-02-12T13:59:36.608Z,20.00
2023-02-12T14:02:36.264Z,17.47
2023-02-12T14:05:21.388Z,18.97
2023-02-12T14:11:21.757Z,16.90
2023-02-12T14:14:09.198Z,18.23
2023-02-12T14:16:41.835Z,20.87
2023-02-12T14:19:50.113Z,22.73
2023-02-12T14:22:34.942Z,20.97
2023-02-12T14:25:22.062Z,21.57
2023-02-12T14:27:53.518Z,21.83
2023-02-12T14:30:42.936Z,21.93
2023-02-12T14:33:24.007Z,19.27
2023-02-12T14:36:32.219Z,22.33
2023-02-12T14:39:27.447Z,20.37
2023-02-12T14:42:25.315Z,18.73
2023-02-12T14:45:02.377Z,18.13
2023-02-12T14:47:35.891Z,19.87
2023-02-12T14:50:34.270Z,17.53
2023-02-12T14:53:31.296Z,18.50
2023-02-12T14:56:00.844Z,17.63
2023-02-12T14:58:37.056Z,17.40
2023-02-12T15:01:11.651Z,18.30
2023-02-12T15:03:48.887Z,17.53
2023-02-12T15:06:46.253Z,17.97
2023-02-12T15:10:01.419Z,18.13
2023-02-12T15:13:09.335Z,19.07
2023-02-12T15:16:44.465Z,17.77
2023-02-12T15:19:35.731Z,19.60
2023-02-12T15:22:06.315Z,18.77
2023-02-12T15:24:38.085Z,19.10
2023-02-12T15:27:06.794Z,17.33
2023-02-12T15:29:56.514Z,19.57
2023-02-12T15:32:32.307Z,19.37
2023-02-12T15:35:01.207Z,18.53
2023-02-12T15:37:36.935Z,18.83
2023-02-12T15:40:27.619Z,18.23
2023-02-12T15:43:04.881Z,21.40
2023-02-12T15:45:41.358Z,20.43
2023-02-12T15:48:25.824Z,19.67
2023-02-12T15:51:33.232Z,20.53
2023-02-12T15:54:19.881Z,20.47
2023-02-12T15:56:51.402Z,20.70
2023-02-12T15:59:30.588Z,19.20
2023-02-12T16:02:09.497Z,20.50
2023-02-12T16:04:43.490Z,19.80
2023-02-12T16:07:22.539Z,20.40
2023-02-12T16:09:56.653Z,22.80
2023-02-12T16:12:32.112Z,19.93
2023-02-12T16:15:01.491Z,22.13
2023-02-12T16:17:37.568Z,21.43
2023-02-12T16:20:22.240Z,21.80
2023-02-12T16:22:53.344Z,22.23
2023-02-12T16:28:30.297Z,21.30
2023-02-12T16:31:16.456Z,25.27
2023-02-12T16:34:02.086Z,23.30
2023-02-12T16:36:38.308Z,24.77
2023-02-12T16:39:09.192Z,25.27
2023-02-12T16:42:06.110Z,22.40
2023-02-12T16:44:37.570Z,23.13
2023-02-12T16:47:07.460Z,23.77
2023-02-12T16:49:37.301Z,22.97
2023-02-12T16:52:53.142Z,22.70
2023-02-12T16:55:22.648Z,24.00
2023-02-12T16:57:58.062Z,21.70
2023-02-12T17:00:41.326Z,25.47
2023-02-12T17:03:15.774Z,21.57
2023-02-12T17:05:46.571Z,22.37
2023-02-12T17:08:27.221Z,23.63
2023-02-12T17:10:59.869Z,23.70
2023-02-12T17:13:33.708Z,22.60
2023-02-12T17:18:53.226Z,25.77
2023-02-12T17:21:50.021Z,28.80
2023-02-12T17:24:27.184Z,29.67
2023-02-12T17:26:56.271Z,28.10
2023-02-12T17:29:27.076Z,26.77
2023-02-12T17:31:59.145Z,27.20
2023-02-12T17:34:46.637Z,26.83
2023-02-12T17:37:31.962Z,26.40
2023-02-12T17:40:05.859Z,26.03
2023-02-12T17:42:35.772Z,26.13
2023-02-12T17:45:05.240Z,26.20
2023-02-12T17:47:44.736Z,27.00
2023-02-12T17:50:21.423Z,24.73
2023-02-12T17:52:52.361Z,25.97
2023-02-12T17:55:43.083Z,26.17
2023-02-12T17:58:31.076Z,25.60
2023-02-12T18:01:13.404Z,26.93
2023-02-12T18:03:42.855Z,26.23
2023-02-12T18:06:16.585Z,25.87
2023-02-12T18:08:50.240Z,26.50
2023-02-12T18:11:27.138Z,29.17
2023-02-12T18:14:01.906Z,28.30
2023-02-12T18:16:42.435Z,29.57
2023-02-12T18:19:13.161Z,27.63
2023-02-12T18:21:43.416Z,25.70
2023-02-12T18:24:15.383Z,27.80
2023-02-12T18:26:46.852Z,31.03
2023-02-12T18:29:18.531Z,31.67
2023-02-12T18:31:55.564Z,29.83
2023-02-12T18:34:29.413Z,31.53
2023-02-12T18:37:07.009Z,29.67
2023-02-12T18:39:36.776Z,28.67
2023-02-12T18:42:06.915Z,29.50
2023-02-12T18:44:39.936Z,26.93
2023-02-12T18:47:17.631Z,26.87
2023-02-12T18:49:52.836Z,26.27
2023-02-12T18:52:22.942Z,27.53
2023-02-12T18:54:54.663Z,28.60
2023-02-12T18:57:25.775Z,28.90
2023-02-12T19:00:02.887Z,29.73
2023-02-12T19:02:36.336Z,29.40
2023-02-12T19:05:16.719Z,27.93
2023-02-12T19:07:55.234Z,28.17
2023-02-12T19:10:23.835Z,28.83
2023-02-12T19:13:09.071Z,27.53
2023-02-12T19:15:43.843Z,27.43
2023-02-12T19:18:24.145Z,28.73
2023-02-12T19:20:55.019Z,28.03
2023-02-12T19:23:24.069Z,26.30
2023-02-12T19:25:54.626Z,27.50
2023-02-12T19:28:26.658Z,27.97
2023-02-12T19:30:58.560Z,28.17
2023-02-12T19:33:32.136Z,27.17
2023-02-12T19:36:06.966Z,28.03
2023-02-12T19:38:42.164Z,26.73
2023-02-12T19:41:22.363Z,28.67
2023-02-12T19:44:04.121Z,28.03
2023-02-12T19:46:42.053Z,25.90
2023-02-12T19:49:29.542Z,30.73
2023-02-12T19:52:03.606Z,29.47
2023-02-12T19:54:51.458Z,27.30
2023-02-12T19:57:21.399Z,31.17
2023-02-12T19:59:53.755Z,30.17
2023-02-12T20:02:26.422Z,31.83
2023-02-12T20:05:01.795Z,29.50
2023-02-12T20:07:46.477Z,30.07
2023-02-12T20:10:19.252Z,30.63
2023-02-12T20:15:32.026Z,28.83
2023-02-12T20:18:02.010Z,29.20
2023-02-12T20:20:35.136Z,29.00
2023-02-12T20:23:10.003Z,30.77
2023-02-12T20:25:45.985Z,30.33
2023-02-12T20:28:20.490Z,31.20
2023-02-12T20:30:52.562Z,27.57
2023-02-12T20:33:32.512Z,31.33
2023-02-12T20:36:11.365Z,29.67
2023-02-12T20:38:54.437Z,28.47
2023-02-12T20:41:24.093Z,31.10
2023-02-12T20:44:00.272Z,29.80
2023-02-12T20:46:39.291Z,28.93
2023-02-12T20:49:14.053Z,28.33
2023-02-12T20:51:45.148Z,28.20
2023-02-12T20:54:19.169Z,27.07
2023-02-12T20:57:09.406Z,27.93
2023-02-12T20:59:50.101Z,25.73
2023-02-12T21:02:27.930Z,27.77
2023-02-12T21:04:57.333Z,26.47
2023-02-12T21:07:26.602Z,29.33
2023-02-12T21:09:58.294Z,30.03
2023-02-12T21:12:34.156Z,27.33
2023-02-12T21:15:08.169Z,27.47
2023-02-12T21:17:40.095Z,29.90
2023-02-12T21:20:14.098Z,28.77
2023-02-12T21:22:44.505Z,37.97
2023-02-12T21:25:13.327Z,34.70
2023-02-12T21:27:47.150Z,30.83
2023-02-12T21:30:18.312Z,29.30
2023-02-12T21:32:55.632Z,26.63
2023-02-12T21:35:31.554Z,28.17
2023-02-12T21:38:12.658Z,29.00
2023-02-12T21:40:44.966Z,27.43
2023-02-12T21:43:16.091Z,28.43
2023-02-12T21:46:05.937Z,28.97
2023-02-12T21:48:37.485Z,27.60
2023-02-12T21:51:07.471Z,26.60
2023-02-12T21:56:19.976Z,26.37
2023-02-12T21:58:49.415Z,25.90
2023-02-12T22:01:24.979Z,27.77
2023-02-12T22:03:54.631Z,28.93
2023-02-12T22:06:27.998Z,27.00
2023-02-12T22:09:01.602Z,28.10
2023-02-12T22:11:29.082Z,27.30
2023-02-12T22:13:57.196Z,29.23
2023-02-12T22:16:26.469Z,29.03
2023-02-12T22:19:02.071Z,26.83
2023-02-12T22:21:36.562Z,25.50
2023-02-12T22:24:07.385Z,25.97
2023-02-12T22:26:37.227Z,26.67
2023-02-12T22:29:08.390Z,27.23
2023-02-12T22:31:41.513Z,28.40
2023-02-12T22:34:15.241Z,28.63
2023-02-12T22:36:45.478Z,29.10
2023-02-12T22:39:16.503Z,28.03
2023-02-12T22:41:49.924Z,26.70
2023-02-12T22:44:25.246Z,27.07
2023-02-12T22:46:53.412Z,25.20
2023-02-12T22:49:24.652Z,26.17
2023-02-12T22:51:51.659Z,26.03
2023-02-12T22:54:22.054Z,25.17
2023-02-12T22:56:54.898Z,25.70
2023-02-12T22:59:25.298Z,25.53
2023-02-12T23:01:55.375Z,25.30
2023-02-12T23:04:23.959Z,26.33
2023-02-12T23:06:55.011Z,25.70
2023-02-12T23:09:24.902Z,27.67
2023-02-12T23:11:53.436Z,28.37
2023-02-12T23:14:23.162Z,27.73
2023-02-12T23:16:55.612Z,27.67
2023-02-12T23:19:30.072Z,26.93
2023-02-12T23:21:59.372Z,30.43
2023-02-12T23:24:26.817Z,27.07
2023-02-12T23:29:36.031Z,26.73
2023-02-12T23:32:06.613Z,29.80
2023-02-12T23:34:35.485Z,29.90
2023-02-12T23:37:07.383Z,27.70
2023-02-12T23:39:38.173Z,28.73
2023-02-12T23:42:08.583Z,27.07
2023-02-12T23:44:38.850Z,27.03
2023-02-12T23:47:08.017Z,26.93
2023-02-12T23:49:38.442Z,25.83
2023-02-12T23:52:08.182Z,26.20
2023-02-12T23:54:38.916Z,27.03
2023-02-12T23:57:08.041Z,25.37
2023-02-12T23:59:43.400Z,29.57
